Terminal Aerodrome Forecast
Issued by NWS

Home | Current Version | Previous Version | Graphics & Text | Print | Product List | Glossary On
Versions: 1 2 3 4 5 6 7 8 9 10 11 12 13 14 15 16
000
FTUS43 KMPX 250520
TAFAXN
TAF
KAXN 250520Z 2506/2606 10011G16KT 3SM BR OVC005
      TEMPO 2509/2512 2SM BR OVC003
     FM251400 08010KT 4SM BR OVC010
     FM251900 08012G18KT P6SM SCT030 OVC050=

USA.gov is the U.S. government's official web portal to all federal, state and local government web resources and services.